createdAt,value
2023-01-26T00:04:00.700Z,8.07
2023-01-26T00:09:04.059Z,7.55
2023-01-26T00:14:06.749Z,8.57
2023-01-26T00:19:09.501Z,6.85
2023-01-26T00:24:12.223Z,5.43
2023-01-26T00:29:15.043Z,7.30
2023-01-26T00:34:17.787Z,6.75
2023-01-26T00:39:20.542Z,8.85
2023-01-26T00:44:23.299Z,7.45
2023-01-26T00:49:26.285Z,7.05
2023-01-26T00:54:29.503Z,6.30
2023-01-26T00:59:32.797Z,6.78
2023-01-26T01:04:35.615Z,6.72
2023-01-26T01:09:38.444Z,6.13
2023-01-26T01:14:41.457Z,8.57
2023-01-26T01:19:44.174Z,8.57
2023-01-26T01:24:48.562Z,5.47
2023-01-26T01:29:51.929Z,4.45
2023-01-26T01:34:54.641Z,5.85
2023-01-26T01:39:57.521Z,7.05
2023-01-26T01:45:25.154Z,6.78
2023-01-26T01:50:28.596Z,6.10
2023-01-26T01:55:32.159Z,4.37
2023-01-26T02:00:34.871Z,6.28
2023-01-26T02:06:09.390Z,6.55
2023-01-26T02:11:25.570Z,6.30
2023-01-26T02:16:29.257Z,3.60
2023-01-26T02:21:32.432Z,4.25
2023-01-26T02:26:37.480Z,5.97
2023-01-26T02:31:41.100Z,3.83
2023-01-26T02:36:43.873Z,6.83
2023-01-26T02:42:05.302Z,4.10
2023-01-26T02:47:15.690Z,6.18
2023-01-26T02:52:29.525Z,6.10
2023-01-26T02:57:36.625Z,6.07
2023-01-26T03:02:41.684Z,6.60
2023-01-26T03:07:44.751Z,6.15
2023-01-26T03:12:47.550Z,7.45
2023-01-26T03:17:50.305Z,4.40
2023-01-26T03:23:11.575Z,8.48
2023-01-26T03:28:14.958Z,3.58
2023-01-26T03:33:18.374Z,4.00
2023-01-26T03:38:21.121Z,6.22
2023-01-26T03:43:46.354Z,8.70
2023-01-26T03:49:07.614Z,4.45
2023-01-26T03:54:28.688Z,3.25
2023-01-26T03:59:40.406Z,4.65
2023-01-26T04:10:10.873Z,3.75
2023-01-26T04:15:32.168Z,3.85
2023-01-26T04:20:54.575Z,6.05
2023-01-26T04:25:57.687Z,7.38
2023-01-26T04:31:00.436Z,4.28
2023-01-26T04:36:05.485Z,3.40
2023-01-26T04:41:09.514Z,3.33
2023-01-26T04:46:20.916Z,5.63
2023-01-26T04:51:23.757Z,3.25
2023-01-26T04:56:29.156Z,6.05
2023-01-26T05:01:34.188Z,3.65
2023-01-26T05:06:38.793Z,4.25
2023-01-26T05:11:41.674Z,4.40
2023-01-26T05:17:10.356Z,2.75
2023-01-26T05:22:31.676Z,2.30
2023-01-26T05:27:54.059Z,4.93
2023-01-26T05:33:08.085Z,3.55
2023-01-26T05:38:11.011Z,3.47
2023-01-26T05:43:14.168Z,5.13
2023-01-26T05:48:24.606Z,3.88
2023-01-26T05:53:28.632Z,4.13
2023-01-26T05:58:31.467Z,5.68
2023-01-26T06:03:34.788Z,6.43
2023-01-26T06:08:37.538Z,3.83
2023-01-26T06:14:13.332Z,4.25
2023-01-26T06:19:16.152Z,4.50
2023-01-26T06:24:24.209Z,3.42
2023-01-26T06:29:28.518Z,3.47
2023-01-26T06:34:31.586Z,5.28
2023-01-26T06:39:35.288Z,4.18
2023-01-26T06:44:38.051Z,7.95
2023-01-26T06:49:40.873Z,5.93
2023-01-26T06:54:45.115Z,8.18
2023-01-26T07:00:03.284Z,7.60
2023-01-26T07:05:31.921Z,6.95
2023-01-26T07:10:38.523Z,4.72
2023-01-26T07:15:41.199Z,5.45
2023-01-26T07:20:43.874Z,6.22
2023-01-26T07:25:46.549Z,7.55
2023-01-26T07:30:49.566Z,5.75
2023-01-26T07:35:56.134Z,6.30
2023-01-26T07:40:58.950Z,6.03
2023-01-26T07:46:01.922Z,8.48
2023-01-26T07:51:05.535Z,6.55
2023-01-26T07:56:13.740Z,5.82
2023-01-26T08:01:16.450Z,7.93
2023-01-26T08:06:19.542Z,7.43
2023-01-26T08:11:24.643Z,9.38
2023-01-26T08:16:27.425Z,7.10
2023-01-26T08:21:30.143Z,7.13
2023-01-26T08:26:33.328Z,8.18
2023-01-26T08:31:36.074Z,5.82
2023-01-26T08:36:40.040Z,9.07
2023-01-26T08:41:42.938Z,9.43
2023-01-26T08:46:45.679Z,7.18
2023-01-26T08:51:48.373Z,8.57
2023-01-26T08:56:51.042Z,6.72
2023-01-26T09:01:53.830Z,6.82
2023-01-26T09:06:56.704Z,6.22
2023-01-26T09:11:59.513Z,6.43
2023-01-26T09:17:02.266Z,9.95
2023-01-26T09:22:05.320Z,7.70
2023-01-26T09:27:09.593Z,6.68
2023-01-26T09:32:12.277Z,8.25
2023-01-26T09:37:15.678Z,5.97
2023-01-26T09:42:26.308Z,6.38
2023-01-26T09:47:48.532Z,7.65
2023-01-26T09:53:03.468Z,8.60
2023-01-26T09:58:10.039Z,8.00
2023-01-26T10:03:37.548Z,7.15
2023-01-26T10:08:42.215Z,9.00
2023-01-26T10:13:51.162Z,6.95
2023-01-26T10:19:05.378Z,6.68
2023-01-26T10:24:10.473Z,6.07
2023-01-26T10:29:18.260Z,6.70
2023-01-26T10:34:27.354Z,6.22
2023-01-26T10:39:30.288Z,7.03
2023-01-26T10:44:38.875Z,5.25
2023-01-26T10:49:41.745Z,6.35
2023-01-26T10:54:48.611Z,5.55
2023-01-26T11:00:01.453Z,8.93
2023-01-26T11:05:09.397Z,6.45
2023-01-26T11:10:33.591Z,6.40
2023-01-26T11:20:59.444Z,7.15
2023-01-26T11:26:07.714Z,5.68
2023-01-26T11:31:10.617Z,6.85
2023-01-26T11:36:19.849Z,6.97
2023-01-26T11:41:40.377Z,5.57
2023-01-26T11:46:50.237Z,8.50
2023-01-26T11:52:12.744Z,6.28
2023-01-26T11:57:41.555Z,5.88
2023-01-26T12:02:47.648Z,5.30
2023-01-26T12:08:13.339Z,6.20
2023-01-26T12:13:25.112Z,7.65
2023-01-26T12:18:46.930Z,8.55
2023-01-26T12:24:05.141Z,6.22
2023-01-26T12:29:17.632Z,6.25
2023-01-26T12:34:27.113Z,8.02
2023-01-26T12:39:45.899Z,5.80
2023-01-26T12:45:00.617Z,5.78
2023-01-26T12:50:21.430Z,6.22
2023-01-26T12:55:30.998Z,8.18
2023-01-26T13:00:37.642Z,8.05
2023-01-26T13:05:59.325Z,7.03
2023-01-26T13:11:07.216Z,8.30
2023-01-26T13:16:16.013Z,6.57
2023-01-26T13:21:40.819Z,6.82
2023-01-26T13:26:48.722Z,6.57
2023-01-26T13:31:58.917Z,5.38
2023-01-26T13:37:10.382Z,7.82
2023-01-26T13:42:37.178Z,5.63
2023-01-26T13:47:42.936Z,7.60
2023-01-26T13:52:45.591Z,7.78
2023-01-26T13:57:49.942Z,6.97
2023-01-26T14:02:52.695Z,6.57
2023-01-26T14:07:55.628Z,6.00
2023-01-26T14:12:59.069Z,6.30
2023-01-26T14:18:04.812Z,7.50
2023-01-26T14:23:19.111Z,7.78
2023-01-26T14:28:23.333Z,6.85
2023-01-26T14:33:33.026Z,7.05
2023-01-26T14:38:44.723Z,7.88
2023-01-26T14:43:56.051Z,6.50
2023-01-26T14:49:07.342Z,7.38
2023-01-26T14:54:26.655Z,7.80
2023-01-26T14:59:35.317Z,7.20
2023-01-26T15:04:39.640Z,5.22
2023-01-26T15:09:42.400Z,6.97
2023-01-26T15:14:56.759Z,7.63
2023-01-26T15:25:05.995Z,7.18
2023-01-26T15:30:17.460Z,6.60
2023-01-26T15:35:26.296Z,5.35
2023-01-26T15:40:29.803Z,6.53
2023-01-26T15:45:36.647Z,6.30
2023-01-26T15:50:39.454Z,6.68
2023-01-26T15:55:42.769Z,7.32
2023-01-26T16:00:46.213Z,6.97
2023-01-26T16:05:49.211Z,6.28
2023-01-26T16:10:52.810Z,6.32
2023-01-26T16:15:55.683Z,5.30
2023-01-26T16:20:58.408Z,5.75
2023-01-26T16:26:01.125Z,6.22
2023-01-26T16:31:12.325Z,5.07
2023-01-26T16:36:16.492Z,4.95
2023-01-26T16:41:26.375Z,3.90
2023-01-26T16:46:30.264Z,6.03
2023-01-26T16:51:37.915Z,5.05
2023-01-26T16:56:40.675Z,5.20
2023-01-26T17:01:43.495Z,6.15
2023-01-26T17:06:46.312Z,5.57
2023-01-26T17:11:49.067Z,5.78
2023-01-26T17:16:51.735Z,4.32
2023-01-26T17:21:54.478Z,5.47
2023-01-26T17:26:57.182Z,5.60
2023-01-26T17:32:00.263Z,4.93
2023-01-26T17:37:03.117Z,6.03
2023-01-26T17:42:05.844Z,6.32
2023-01-26T17:47:09.751Z,7.75
2023-01-26T17:52:14.628Z,5.30
2023-01-26T17:57:17.539Z,4.65
2023-01-26T18:02:20.303Z,6.25
2023-01-26T18:07:24.655Z,5.40
2023-01-26T18:12:27.360Z,6.38
2023-01-26T18:17:30.221Z,7.70
2023-01-26T18:22:33.017Z,8.10
2023-01-26T18:27:35.849Z,8.02
2023-01-26T18:32:39.453Z,8.52
2023-01-26T18:37:42.280Z,8.30
2023-01-26T18:42:45.065Z,8.38
2023-01-26T18:47:49.560Z,9.63
2023-01-26T18:57:55.592Z,7.15
2023-01-26T19:02:58.434Z,10.52
2023-01-26T19:08:10.478Z,9.15
2023-01-26T19:13:13.535Z,14.27
2023-01-26T19:18:16.776Z,8.75
2023-01-26T19:23:19.537Z,9.18
2023-01-26T19:28:22.302Z,11.07
2023-01-26T19:33:25.069Z,12.25
2023-01-26T19:38:27.704Z,14.85
2023-01-26T19:43:30.448Z,9.82
2023-01-26T19:48:33.189Z,12.63
2023-01-26T19:53:38.786Z,10.88
2023-01-26T19:58:41.424Z,11.13
2023-01-26T20:03:44.177Z,10.38
2023-01-26T20:08:47.501Z,6.35
2023-01-26T20:13:57.108Z,10.75
2023-01-26T20:19:00.454Z,13.73
2023-01-26T20:24:05.921Z,14.30
2023-01-26T20:29:15.665Z,13.35
2023-01-26T20:34:21.406Z,12.18
2023-01-26T20:39:27.026Z,13.02
2023-01-26T20:44:30.202Z,15.73
2023-01-26T20:49:32.917Z,10.57
2023-01-26T20:54:36.355Z,13.30
2023-01-26T20:59:39.332Z,10.07
2023-01-26T21:04:42.684Z,13.55
2023-01-26T21:09:45.533Z,16.10
2023-01-26T21:14:48.426Z,12.38
2023-01-26T21:19:51.189Z,10.25
2023-01-26T21:24:54.003Z,14.73
2023-01-26T21:29:56.728Z,15.20
2023-01-26T21:34:59.568Z,13.40
2023-01-26T21:40:02.486Z,9.75
2023-01-26T21:45:25.256Z,15.33
2023-01-26T21:50:47.890Z,11.25
2023-01-26T21:55:50.678Z,11.38
2023-01-26T22:00:53.630Z,13.20
2023-01-26T22:05:57.171Z,15.88
2023-01-26T22:11:00.002Z,13.53
2023-01-26T22:16:04.620Z,15.13
2023-01-26T22:21:07.500Z,8.27
2023-01-26T22:26:15.918Z,14.80
2023-01-26T22:31:20.086Z,14.30
2023-01-26T22:36:23.340Z,6.82
2023-01-26T22:41:28.665Z,12.13
2023-01-26T22:46:32.829Z,11.68
2023-01-26T22:51:38.894Z,11.90
2023-01-26T22:56:41.546Z,12.30
2023-01-26T23:01:44.274Z,10.93
2023-01-26T23:06:47.000Z,11.45
2023-01-26T23:11:49.669Z,11.82
2023-01-26T23:16:52.445Z,11.98
2023-01-26T23:21:55.409Z,13.10
2023-01-26T23:26:58.174Z,12.32
2023-01-26T23:32:00.983Z,11.80
2023-01-26T23:37:03.955Z,12.27
2023-01-26T23:42:06.859Z,9.50
2023-01-26T23:47:09.668Z,14.30
2023-01-26T23:52:12.429Z,8.32
2023-01-26T23:57:15.091Z,12.50
